createdAt,value
2018-07-21T00:00:00.436Z,20.07
2018-07-21T00:01:53.274Z,20.04
2018-07-21T00:02:53.156Z,20.05
2018-07-21T00:04:46.028Z,20.08
2018-07-21T00:05:45.923Z,19.92
2018-07-21T00:07:38.771Z,19.90
2018-07-21T00:08:38.669Z,19.90
2018-07-21T00:10:31.513Z,19.94
2018-07-21T00:11:31.405Z,19.92
2018-07-21T00:13:24.258Z,19.93
2018-07-21T00:14:24.175Z,19.87
2018-07-21T00:16:16.920Z,19.84
2018-07-21T00:17:16.807Z,19.78
2018-07-21T00:19:09.652Z,19.75
2018-07-21T00:20:09.560Z,19.72
2018-07-21T00:22:02.413Z,19.77
2018-07-21T00:23:02.428Z,19.64
2018-07-21T00:24:55.186Z,19.57
2018-07-21T00:25:55.059Z,19.52
2018-07-21T00:27:47.913Z,19.63
2018-07-21T00:28:47.826Z,19.53
2018-07-21T00:30:40.688Z,19.63
2018-07-21T00:31:40.565Z,19.60
2018-07-21T00:33:33.455Z,19.50
2018-07-21T00:34:33.207Z,19.53
2018-07-21T00:36:26.084Z,19.52
2018-07-21T00:37:25.962Z,19.54
2018-07-21T00:39:18.794Z,19.49
2018-07-21T00:40:18.730Z,19.47
2018-07-21T00:42:11.570Z,19.41
2018-07-21T00:43:11.446Z,19.34
2018-07-21T00:45:04.281Z,19.47
2018-07-21T00:46:04.196Z,19.38
2018-07-21T00:47:57.095Z,19.35
2018-07-21T00:48:56.982Z,19.39
2018-07-21T00:50:49.779Z,19.27
2018-07-21T00:51:49.730Z,19.26
2018-07-21T00:53:42.542Z,19.32
2018-07-21T00:54:42.456Z,19.26
2018-07-21T00:56:35.315Z,19.27
2018-07-21T00:57:35.216Z,19.30
2018-07-21T00:59:28.873Z,19.20
2018-07-21T01:00:28.934Z,19.16
2018-07-21T01:02:21.605Z,19.19
2018-07-21T01:03:21.515Z,19.05
2018-07-21T01:05:14.389Z,19.07
2018-07-21T01:06:14.267Z,19.04
2018-07-21T01:08:07.137Z,19.13
2018-07-21T01:09:07.009Z,19.09
2018-07-21T01:10:59.889Z,19.05
2018-07-21T01:11:59.764Z,19.12
2018-07-21T01:13:52.619Z,19.04
2018-07-21T01:14:52.508Z,18.94
2018-07-21T01:16:45.377Z,18.96
2018-07-21T01:17:45.262Z,18.96
2018-07-21T01:19:38.123Z,18.68
2018-07-21T01:20:38.010Z,18.79
2018-07-21T01:22:30.959Z,18.75
2018-07-21T01:23:30.766Z,18.66
2018-07-21T01:25:23.623Z,18.76
2018-07-21T01:26:23.546Z,18.71
2018-07-21T01:28:16.364Z,18.66
2018-07-21T01:29:16.261Z,18.75
2018-07-21T01:31:09.134Z,18.63
2018-07-21T01:32:09.033Z,18.61
2018-07-21T01:34:01.874Z,18.86
2018-07-21T01:35:01.805Z,18.96
2018-07-21T01:36:54.621Z,19.01
2018-07-21T01:37:54.501Z,19.00
2018-07-21T01:39:47.508Z,19.12
2018-07-21T01:40:47.259Z,19.13
2018-07-21T01:42:40.096Z,19.07
2018-07-21T01:43:40.035Z,19.01
2018-07-21T01:45:32.906Z,19.15
2018-07-21T01:46:32.780Z,19.24
2018-07-21T01:48:25.635Z,19.31
2018-07-21T01:49:25.531Z,19.30
2018-07-21T01:51:18.516Z,19.35
2018-07-21T01:52:18.252Z,19.31
2018-07-21T01:54:11.092Z,19.26
2018-07-21T01:55:11.000Z,19.31
2018-07-21T01:57:03.856Z,19.27
2018-07-21T01:58:03.777Z,19.32
2018-07-21T01:59:57.016Z,19.26
2018-07-21T02:00:56.917Z,19.34
2018-07-21T02:02:49.787Z,19.47
2018-07-21T02:03:49.661Z,19.37
2018-07-21T02:05:42.534Z,19.24
2018-07-21T02:06:42.447Z,19.23
2018-07-21T02:08:35.284Z,19.23
2018-07-21T02:09:35.172Z,19.15
2018-07-21T02:11:28.075Z,19.01
2018-07-21T02:12:27.911Z,18.86
2018-07-21T02:14:20.765Z,18.89
2018-07-21T02:15:20.667Z,18.75
2018-07-21T02:17:13.523Z,18.88
2018-07-21T02:18:13.327Z,18.78
2018-07-21T02:20:06.184Z,18.81
2018-07-21T02:21:06.074Z,18.71
2018-07-21T02:22:58.941Z,18.68
2018-07-21T02:23:58.843Z,18.68
2018-07-21T02:25:51.675Z,18.64
2018-07-21T02:26:51.564Z,18.57
2018-07-21T02:28:44.415Z,18.58
2018-07-21T02:29:44.301Z,18.45
2018-07-21T02:31:37.161Z,18.48
2018-07-21T02:32:37.051Z,18.41
2018-07-21T02:34:29.962Z,18.48
2018-07-21T02:35:30.042Z,18.57
2018-07-21T02:37:22.662Z,18.58
2018-07-21T02:38:22.551Z,18.52
2018-07-21T02:40:15.414Z,18.51
2018-07-21T02:41:15.332Z,18.57
2018-07-21T02:43:08.185Z,18.54
2018-07-21T02:44:08.052Z,18.45
2018-07-21T02:46:00.889Z,18.58
2018-07-21T02:47:00.824Z,18.41
2018-07-21T02:48:53.560Z,18.38
2018-07-21T02:49:53.475Z,18.36
2018-07-21T02:51:46.292Z,18.38
2018-07-21T02:52:46.210Z,18.36
2018-07-21T02:54:39.075Z,18.26
2018-07-21T02:55:38.947Z,18.31
2018-07-21T02:57:31.808Z,18.18
2018-07-21T02:58:31.716Z,18.03
2018-07-21T03:00:24.557Z,18.13
2018-07-21T03:01:24.444Z,18.15
2018-07-21T03:03:17.302Z,18.13
2018-07-21T03:04:17.206Z,18.06
2018-07-21T03:06:10.064Z,18.08
2018-07-21T03:07:09.946Z,18.03
2018-07-21T03:09:02.803Z,18.23
2018-07-21T03:10:02.711Z,18.27
2018-07-21T03:11:55.465Z,18.42
2018-07-21T03:12:55.356Z,18.39
2018-07-21T03:14:48.183Z,18.33
2018-07-21T03:15:48.101Z,18.28
2018-07-21T03:17:40.962Z,18.21
2018-07-21T03:18:40.856Z,18.12
2018-07-21T03:20:34.712Z,18.11
2018-07-21T03:21:34.012Z,18.08
2018-07-21T03:23:26.845Z,18.06
2018-07-21T03:24:26.772Z,18.11
2018-07-21T03:26:19.638Z,18.11
2018-07-21T03:27:19.500Z,18.09
2018-07-21T03:29:12.247Z,18.05
2018-07-21T03:30:12.147Z,17.97
2018-07-21T03:32:05.008Z,17.96
2018-07-21T03:33:04.899Z,17.96
2018-07-21T03:34:57.661Z,17.84
2018-07-21T03:35:57.551Z,17.86
2018-07-21T03:37:50.436Z,17.84
2018-07-21T03:38:50.298Z,17.83
2018-07-21T03:40:43.037Z,17.72
2018-07-21T03:41:42.960Z,17.69
2018-07-21T03:43:36.244Z,17.66
2018-07-21T03:44:36.103Z,17.68
2018-07-21T03:46:28.942Z,17.54
2018-07-21T03:47:28.852Z,17.57
2018-07-21T03:49:21.727Z,17.49
2018-07-21T03:50:21.625Z,17.47
2018-07-21T03:52:14.451Z,17.46
2018-07-21T03:53:14.344Z,17.45
2018-07-21T03:55:07.254Z,17.39
2018-07-21T03:56:07.098Z,17.38
2018-07-21T03:57:59.949Z,17.41
2018-07-21T03:58:59.848Z,17.43
2018-07-21T04:00:52.605Z,17.38
2018-07-21T04:01:52.520Z,17.38
2018-07-21T04:03:45.270Z,17.37
2018-07-21T04:04:45.142Z,17.39
2018-07-21T04:06:38.017Z,17.28
2018-07-21T04:07:37.895Z,17.31
2018-07-21T04:09:30.749Z,17.25
2018-07-21T04:10:30.641Z,17.24
2018-07-21T04:12:23.399Z,17.16
2018-07-21T04:13:23.294Z,17.10
2018-07-21T04:15:16.196Z,17.14
2018-07-21T04:16:16.038Z,17.07
2018-07-21T04:18:09.028Z,17.13
2018-07-21T04:19:08.847Z,17.07
2018-07-21T04:21:01.644Z,17.27
2018-07-21T04:22:01.558Z,17.32
2018-07-21T04:23:54.338Z,17.35
2018-07-21T04:24:54.189Z,17.37
2018-07-21T04:26:47.045Z,17.47
2018-07-21T04:27:46.933Z,17.49
2018-07-21T04:29:42.112Z,17.47
2018-07-21T04:30:41.685Z,17.49
2018-07-21T04:32:35.241Z,17.49
2018-07-21T04:33:35.111Z,17.46
2018-07-21T04:35:27.955Z,17.52
2018-07-21T04:36:27.861Z,17.45
2018-07-21T04:38:20.700Z,17.49
2018-07-21T04:39:20.591Z,17.52
2018-07-21T04:41:13.344Z,17.53
2018-07-21T04:42:13.256Z,17.57
2018-07-21T04:44:06.114Z,17.56
2018-07-21T04:45:06.093Z,17.53
2018-07-21T04:46:58.742Z,17.57
2018-07-21T04:47:58.641Z,17.56
2018-07-21T04:49:51.502Z,17.59
2018-07-21T04:50:51.384Z,17.53
2018-07-21T04:52:44.167Z,17.63
2018-07-21T04:53:44.050Z,17.65
2018-07-21T04:55:36.905Z,17.71
2018-07-21T04:56:36.798Z,17.81
2018-07-21T04:58:29.664Z,17.83
2018-07-21T04:59:29.429Z,17.87
2018-07-21T05:01:22.296Z,17.94
2018-07-21T05:02:22.202Z,17.99
2018-07-21T05:04:15.035Z,17.94
2018-07-21T05:05:14.926Z,17.99
2018-07-21T05:07:07.687Z,18.08
2018-07-21T05:08:07.589Z,18.13
2018-07-21T05:10:00.841Z,18.18
2018-07-21T05:11:00.738Z,18.21
2018-07-21T05:12:53.598Z,18.24
2018-07-21T05:13:53.486Z,18.26
2018-07-21T05:15:46.232Z,18.34
2018-07-21T05:16:46.136Z,18.30
2018-07-21T05:18:39.021Z,18.36
2018-07-21T05:19:38.914Z,18.48
2018-07-21T05:21:31.648Z,18.39
2018-07-21T05:22:31.548Z,18.52
2018-07-21T05:24:24.494Z,18.56
2018-07-21T05:25:24.294Z,18.54
2018-07-21T05:27:17.119Z,18.60
2018-07-21T05:28:17.256Z,18.63
2018-07-21T05:30:09.903Z,18.68
2018-07-21T05:31:09.807Z,18.79
2018-07-21T05:33:02.642Z,18.81
2018-07-21T05:34:02.533Z,18.79
2018-07-21T05:35:55.391Z,18.79
2018-07-21T05:36:55.274Z,18.86
2018-07-21T05:38:48.667Z,19.08
2018-07-21T05:39:48.450Z,19.05
2018-07-21T05:41:41.317Z,19.16
2018-07-21T05:42:41.190Z,19.20
2018-07-21T05:44:33.943Z,19.37
2018-07-21T05:45:33.843Z,19.42
2018-07-21T05:47:26.675Z,19.54
2018-07-21T05:48:26.594Z,19.49
2018-07-21T05:50:19.433Z,19.68
2018-07-21T05:51:19.334Z,19.79
2018-07-21T05:53:12.253Z,19.82
2018-07-21T05:54:12.083Z,19.86
2018-07-21T05:56:04.924Z,20.00
2018-07-21T05:57:04.850Z,20.05
2018-07-21T05:58:58.111Z,20.14
2018-07-21T05:59:58.004Z,20.23
2018-07-21T06:01:50.835Z,20.30
2018-07-21T06:02:50.829Z,20.39
2018-07-21T06:04:43.599Z,20.46
2018-07-21T06:05:43.489Z,20.46
2018-07-21T06:07:36.348Z,20.68
2018-07-21T06:08:36.281Z,20.73
2018-07-21T06:10:29.093Z,20.90
2018-07-21T06:11:28.991Z,20.97
2018-07-21T06:13:21.743Z,21.20
2018-07-21T06:14:21.713Z,21.18
2018-07-21T06:16:14.488Z,21.28
2018-07-21T06:17:14.382Z,21.47
2018-07-21T06:19:07.326Z,21.62
2018-07-21T06:20:07.142Z,21.71
2018-07-21T06:22:00.005Z,21.84
2018-07-21T06:22:59.914Z,21.97
2018-07-21T06:24:52.754Z,22.19
2018-07-21T06:25:52.639Z,22.16
2018-07-21T06:27:45.568Z,22.19
2018-07-21T06:28:45.462Z,22.23
2018-07-21T06:30:38.244Z,22.15
2018-07-21T06:31:38.138Z,22.19
2018-07-21T06:33:30.992Z,22.19
2018-07-21T06:34:30.895Z,22.21
2018-07-21T06:36:23.744Z,22.12
2018-07-21T06:37:23.634Z,22.06
2018-07-21T06:39:16.507Z,22.30
2018-07-21T06:40:16.399Z,22.31
2018-07-21T06:42:09.236Z,22.37
2018-07-21T06:43:09.211Z,22.46
2018-07-21T06:45:02.009Z,22.49
2018-07-21T06:46:01.907Z,22.48
2018-07-21T06:47:54.731Z,22.74
2018-07-21T06:48:54.663Z,22.80
2018-07-21T06:50:47.490Z,23.01
2018-07-21T06:51:47.410Z,22.96
2018-07-21T06:53:40.227Z,23.06
2018-07-21T06:54:40.150Z,23.21
2018-07-21T06:56:33.008Z,23.25
2018-07-21T06:57:32.952Z,23.44
2018-07-21T06:59:25.746Z,23.48
2018-07-21T07:00:25.646Z,23.60
2018-07-21T07:02:18.513Z,23.56
2018-07-21T07:03:18.391Z,23.63
2018-07-21T07:05:11.223Z,23.63
2018-07-21T07:06:11.156Z,23.69
2018-07-21T07:08:03.993Z,23.85
2018-07-21T07:09:03.907Z,23.91
2018-07-21T07:10:56.736Z,24.07
2018-07-21T07:11:56.668Z,24.26
2018-07-21T07:13:49.520Z,24.29
2018-07-21T07:14:49.388Z,24.47
2018-07-21T07:16:42.647Z,24.53
2018-07-21T07:17:42.559Z,24.51
2018-07-21T07:19:35.404Z,24.53
2018-07-21T07:20:35.417Z,24.58
2018-07-21T07:22:28.207Z,24.34
2018-07-21T07:23:28.049Z,24.25
2018-07-21T07:25:20.934Z,24.26
2018-07-21T07:26:20.806Z,24.28
2018-07-21T07:28:14.345Z,24.31
2018-07-21T07:29:13.536Z,24.26
2018-07-21T07:31:06.403Z,24.38
2018-07-21T07:32:06.317Z,24.45
2018-07-21T07:33:59.146Z,24.65
2018-07-21T07:34:59.062Z,24.70
2018-07-21T07:36:55.172Z,24.71
2018-07-21T07:37:55.042Z,24.71
2018-07-21T07:39:49.113Z,24.86
2018-07-21T07:40:48.596Z,24.86
2018-07-21T07:42:41.383Z,24.93
2018-07-21T07:43:41.291Z,24.93
2018-07-21T07:45:34.178Z,25.03
2018-07-21T07:46:34.031Z,25.15
2018-07-21T07:48:26.908Z,25.16
2018-07-21T07:49:26.793Z,25.19
2018-07-21T07:51:19.638Z,25.30
2018-07-21T07:52:19.553Z,25.27
2018-07-21T07:54:12.376Z,25.27
2018-07-21T07:55:12.297Z,25.31
2018-07-21T07:57:05.164Z,25.43
2018-07-21T07:58:05.034Z,25.43
2018-07-21T07:59:57.868Z,25.31
2018-07-21T08:00:57.786Z,25.36
2018-07-21T08:02:50.641Z,25.30
2018-07-21T08:03:50.536Z,25.49
2018-07-21T08:05:43.381Z,25.64
2018-07-21T08:06:43.318Z,25.64
2018-07-21T08:08:36.129Z,25.64
2018-07-21T08:09:36.088Z,25.68
2018-07-21T08:11:28.927Z,25.88
2018-07-21T08:12:28.788Z,25.86
2018-07-21T08:14:21.670Z,26.05
2018-07-21T08:15:21.539Z,26.08
2018-07-21T08:17:14.369Z,26.10
2018-07-21T08:18:14.343Z,26.26
2018-07-21T08:20:07.135Z,25.89
2018-07-21T08:21:07.032Z,26.00
2018-07-21T08:22:59.919Z,26.05
2018-07-21T08:23:59.771Z,26.30
2018-07-21T08:25:52.639Z,26.42
2018-07-21T08:26:52.541Z,26.42
2018-07-21T08:28:45.415Z,26.60
2018-07-21T08:29:45.374Z,26.57
2018-07-21T08:31:38.221Z,26.48
2018-07-21T08:32:38.158Z,26.51
2018-07-21T08:34:30.999Z,26.78
2018-07-21T08:35:30.891Z,26.93
2018-07-21T08:37:23.719Z,27.08
2018-07-21T08:38:23.635Z,27.05
2018-07-21T08:40:16.481Z,27.12
2018-07-21T08:41:16.393Z,27.03
2018-07-21T08:43:09.238Z,27.05
2018-07-21T08:44:09.251Z,27.00
2018-07-21T08:46:02.149Z,27.00
2018-07-21T08:47:01.929Z,27.07
2018-07-21T08:48:54.726Z,27.12
2018-07-21T08:49:54.698Z,27.10
2018-07-21T08:51:47.489Z,26.73
2018-07-21T08:52:47.382Z,26.76
2018-07-21T08:54:40.235Z,26.85
2018-07-21T08:55:40.164Z,26.94
2018-07-21T08:57:32.982Z,26.97
2018-07-21T08:58:32.921Z,27.04
2018-07-21T09:00:25.725Z,27.22
2018-07-21T09:01:25.641Z,27.31
2018-07-21T09:03:18.480Z,27.32
2018-07-21T09:04:18.385Z,27.42
2018-07-21T09:06:11.254Z,27.32
2018-07-21T09:07:11.128Z,27.40
2018-07-21T09:09:03.977Z,27.44
2018-07-21T09:10:03.884Z,27.41
2018-07-21T09:11:56.722Z,27.53
2018-07-21T09:12:56.632Z,27.41
2018-07-21T09:14:49.461Z,27.53
2018-07-21T09:15:49.383Z,27.54
2018-07-21T09:17:42.247Z,27.60
2018-07-21T09:18:42.137Z,27.63
2018-07-21T09:20:34.978Z,27.72
2018-07-21T09:21:34.957Z,27.68
2018-07-21T09:23:27.741Z,27.85
2018-07-21T09:24:27.667Z,27.94
2018-07-21T09:26:20.474Z,27.85
2018-07-21T09:27:20.381Z,27.72
2018-07-21T09:29:13.239Z,27.47
2018-07-21T09:30:13.129Z,27.47
2018-07-21T09:32:06.008Z,27.32
2018-07-21T09:33:05.882Z,27.35
2018-07-21T09:34:58.711Z,27.76
2018-07-21T09:35:58.634Z,27.91
2018-07-21T09:37:51.494Z,28.13
2018-07-21T09:38:51.397Z,28.20
2018-07-21T09:40:44.322Z,28.15
2018-07-21T09:41:44.223Z,28.27
2018-07-21T09:43:37.064Z,28.40
2018-07-21T09:44:36.977Z,28.38
2018-07-21T09:46:29.819Z,28.61
2018-07-21T09:47:29.738Z,28.49
2018-07-21T09:49:22.661Z,28.66
2018-07-21T09:50:22.583Z,28.66
2018-07-21T09:52:15.534Z,28.80
2018-07-21T09:53:15.434Z,28.81
2018-07-21T09:55:08.259Z,28.98
2018-07-21T09:56:08.193Z,28.94
2018-07-21T09:58:01.158Z,29.24
2018-07-21T09:59:01.042Z,29.46
2018-07-21T10:00:53.986Z,29.50
2018-07-21T10:01:53.882Z,29.54
2018-07-21T10:03:46.823Z,29.39
2018-07-21T10:04:46.741Z,29.18
2018-07-21T10:06:39.696Z,28.94
2018-07-21T10:07:39.588Z,28.94
2018-07-21T10:09:32.522Z,28.96
2018-07-21T10:10:32.435Z,29.02
2018-07-21T10:12:25.383Z,28.96
2018-07-21T10:13:25.284Z,29.10
2018-07-21T10:15:18.242Z,29.46
2018-07-21T10:16:18.137Z,29.55
2018-07-21T10:18:11.110Z,29.73
2018-07-21T10:19:11.031Z,29.96
2018-07-21T10:21:04.073Z,29.91
2018-07-21T10:22:03.998Z,29.78
2018-07-21T10:23:56.896Z,29.68
2018-07-21T10:24:56.839Z,29.61
2018-07-21T10:26:50.182Z,29.44
2018-07-21T10:27:49.658Z,29.31
2018-07-21T10:29:42.600Z,29.09
2018-07-21T10:30:42.506Z,28.89
2018-07-21T10:32:35.888Z,28.75
2018-07-21T10:33:35.853Z,28.81
2018-07-21T10:35:28.839Z,28.68
2018-07-21T10:36:28.674Z,28.57
2018-07-21T10:38:22.556Z,28.52
2018-07-21T10:39:22.034Z,28.53
2018-07-21T10:41:15.380Z,28.54
2018-07-21T10:42:14.874Z,28.64
2018-07-21T10:44:07.783Z,28.59
2018-07-21T10:45:07.696Z,28.61
2018-07-21T10:47:00.643Z,28.59
2018-07-21T10:48:00.557Z,28.56
2018-07-21T10:49:53.897Z,28.84
2018-07-21T10:50:53.865Z,29.03
2018-07-21T10:52:46.870Z,29.37
2018-07-21T10:53:46.753Z,29.56
2018-07-21T10:55:39.741Z,29.74
2018-07-21T10:56:39.618Z,29.83
2018-07-21T10:58:32.544Z,30.05
2018-07-21T10:59:32.475Z,30.10
2018-07-21T11:01:26.036Z,30.36
2018-07-21T11:02:25.828Z,30.46
2018-07-21T11:04:18.760Z,30.07
2018-07-21T11:05:18.674Z,30.05
2018-07-21T11:07:11.557Z,30.15
2018-07-21T11:08:11.474Z,30.17
2018-07-21T11:10:04.378Z,30.32
2018-07-21T11:11:04.276Z,30.46
2018-07-21T11:12:57.123Z,30.51
2018-07-21T11:13:57.045Z,30.64
2018-07-21T11:15:49.880Z,30.70
2018-07-21T11:16:49.787Z,30.65
2018-07-21T11:18:42.613Z,30.73
2018-07-21T11:19:42.640Z,30.89
2018-07-21T11:21:35.402Z,30.64
2018-07-21T11:22:35.799Z,30.52
2018-07-21T11:24:28.136Z,30.53
2018-07-21T11:25:28.070Z,30.64
2018-07-21T11:27:20.896Z,30.80
2018-07-21T11:28:21.365Z,30.95
2018-07-21T11:30:13.719Z,30.82
2018-07-21T11:31:13.632Z,30.82
2018-07-21T11:33:07.195Z,30.93
2018-07-21T11:34:06.278Z,30.97
2018-07-21T11:35:59.493Z,31.10
2018-07-21T11:36:59.035Z,31.15
2018-07-21T11:38:51.948Z,31.19
2018-07-21T11:39:52.107Z,31.22
2018-07-21T11:41:46.446Z,31.17
2018-07-21T11:42:46.226Z,31.23
2018-07-21T11:44:39.028Z,31.30
2018-07-21T11:45:38.707Z,31.34
2018-07-21T11:47:31.585Z,31.45
2018-07-21T11:48:31.458Z,31.51
2018-07-21T11:50:24.954Z,31.60
2018-07-21T11:51:24.218Z,31.79
2018-07-21T11:53:17.056Z,31.81
2018-07-21T11:54:16.971Z,31.64
2018-07-21T11:56:09.843Z,31.68
2018-07-21T11:57:09.883Z,31.70
2018-07-21T11:59:04.612Z,31.78
2018-07-21T12:00:04.568Z,31.79
2018-07-21T12:01:57.106Z,31.95
2018-07-21T12:02:56.956Z,31.82
2018-07-21T12:04:50.182Z,32.05
2018-07-21T12:05:50.131Z,32.16
2018-07-21T12:07:42.679Z,32.20
2018-07-21T12:08:42.627Z,32.16
2018-07-21T12:10:36.787Z,31.90
2018-07-21T12:11:36.756Z,31.90
2018-07-21T12:13:30.430Z,31.98
2018-07-21T12:14:30.172Z,31.91
2018-07-21T12:16:22.843Z,31.66
2018-07-21T12:17:22.744Z,31.60
2018-07-21T12:19:16.116Z,31.49
2018-07-21T12:20:15.556Z,31.42
2018-07-21T12:22:08.332Z,31.54
2018-07-21T12:23:08.617Z,31.60
2018-07-21T12:25:01.095Z,31.71
2018-07-21T12:26:01.000Z,31.81
2018-07-21T12:27:53.846Z,31.99
2018-07-21T12:28:53.741Z,32.06
2018-07-21T12:30:46.598Z,32.08
2018-07-21T12:31:46.487Z,32.06
2018-07-21T12:33:39.359Z,32.16
2018-07-21T12:34:39.476Z,32.20
2018-07-21T12:36:32.116Z,32.04
2018-07-21T12:37:32.031Z,31.48
2018-07-21T12:39:25.666Z,30.93
2018-07-21T12:40:25.937Z,30.83
2018-07-21T12:42:18.441Z,30.74
2018-07-21T12:43:18.306Z,30.77
2018-07-21T12:45:11.158Z,30.90
2018-07-21T12:46:11.055Z,31.08
2018-07-21T12:48:03.882Z,30.95
2018-07-21T12:49:03.812Z,30.89
2018-07-21T12:50:57.191Z,30.89
2018-07-21T12:51:56.558Z,30.88
2018-07-21T12:53:50.033Z,31.10
2018-07-21T12:54:49.926Z,31.26
2018-07-21T12:56:42.772Z,31.34
2018-07-21T12:57:42.665Z,31.38
2018-07-21T12:59:35.640Z,31.29
2018-07-21T13:00:35.425Z,31.32
2018-07-21T13:02:28.794Z,31.23
2018-07-21T13:03:28.275Z,31.20
2018-07-21T13:05:21.178Z,31.20
2018-07-21T13:06:21.030Z,31.19
2018-07-21T13:08:14.131Z,31.23
2018-07-21T13:09:14.138Z,31.22
2018-07-21T13:14:02.609Z,30.95
2018-07-21T13:15:02.038Z,30.85
2018-07-21T13:16:55.330Z,30.93
2018-07-21T13:17:54.780Z,30.71
2018-07-21T13:19:48.164Z,30.74
2018-07-21T13:20:47.731Z,30.71
2018-07-21T13:22:40.573Z,30.71
2018-07-21T13:23:40.519Z,30.68
2018-07-21T13:25:33.328Z,30.78
2018-07-21T13:26:33.338Z,30.88
2018-07-21T13:28:26.651Z,30.78
2018-07-21T13:29:26.433Z,30.80
2018-07-21T13:31:18.927Z,30.65
2018-07-21T13:32:18.849Z,30.75
2018-07-21T13:34:11.869Z,30.70
2018-07-21T13:35:13.030Z,30.73
2018-07-21T13:37:04.711Z,30.77
2018-07-21T13:38:04.805Z,30.65
2018-07-21T13:39:59.649Z,30.65
2018-07-21T13:41:00.638Z,30.53
2018-07-21T13:42:51.226Z,29.86
2018-07-21T13:43:50.920Z,29.73
2018-07-21T13:45:42.889Z,30.03
2018-07-21T13:46:43.769Z,30.22
2018-07-21T13:48:36.870Z,30.46
2018-07-21T13:49:35.537Z,30.52
2018-07-21T13:51:28.543Z,30.77
2018-07-21T13:52:28.282Z,30.88
2018-07-21T13:54:21.140Z,30.96
2018-07-21T13:55:21.054Z,30.86
2018-07-21T13:57:14.939Z,30.36
2018-07-21T13:58:13.901Z,30.15
2018-07-21T14:00:07.043Z,30.11
2018-07-21T14:01:06.853Z,30.05
2018-07-21T14:02:59.850Z,29.73
2018-07-21T14:03:59.919Z,29.70
2018-07-21T14:05:52.344Z,29.78
2018-07-21T14:06:52.261Z,29.92
2018-07-21T14:08:54.624Z,30.08
2018-07-21T14:09:52.780Z,30.10
2018-07-21T14:11:47.334Z,30.18
2018-07-21T14:12:45.849Z,30.24
2018-07-21T14:14:38.673Z,30.32
2018-07-21T14:15:38.614Z,30.45
2018-07-21T14:17:32.174Z,30.07
2018-07-21T14:18:31.542Z,30.14
2018-07-21T14:20:24.182Z,30.43
2018-07-21T14:21:24.071Z,30.26
2018-07-21T14:23:16.920Z,30.07
2018-07-21T14:24:16.820Z,29.99
2018-07-21T14:26:09.651Z,30.07
2018-07-21T14:27:09.575Z,30.11
2018-07-21T14:29:02.418Z,30.21
2018-07-21T14:30:02.399Z,30.22
2018-07-21T14:31:55.150Z,30.18
2018-07-21T14:32:55.068Z,30.21
2018-07-21T14:34:47.928Z,30.35
2018-07-21T14:35:47.866Z,30.39
2018-07-21T14:37:40.660Z,30.26
2018-07-21T14:38:40.576Z,30.21
2018-07-21T14:40:33.425Z,30.07
2018-07-21T14:41:33.335Z,29.98
2018-07-21T14:43:26.202Z,29.76
2018-07-21T14:44:26.160Z,29.78
2018-07-21T14:46:18.931Z,29.59
2018-07-21T14:47:19.064Z,29.56
2018-07-21T14:49:11.669Z,29.66
2018-07-21T14:50:11.570Z,29.50
2018-07-21T14:52:04.399Z,29.50
2018-07-21T14:53:04.320Z,29.52
2018-07-21T14:54:57.343Z,29.61
2018-07-21T14:55:57.070Z,29.55
2018-07-21T14:57:49.936Z,29.59
2018-07-21T14:58:49.822Z,29.63
2018-07-21T15:00:42.670Z,29.59
2018-07-21T15:01:42.659Z,29.59
2018-07-21T15:03:35.413Z,29.54
2018-07-21T15:04:35.337Z,29.43
2018-07-21T15:06:28.155Z,29.47
2018-07-21T15:07:28.176Z,29.47
2018-07-21T15:09:20.928Z,29.61
2018-07-21T15:10:20.833Z,29.62
2018-07-21T15:12:14.687Z,29.65
2018-07-21T15:13:14.593Z,29.66
2018-07-21T15:15:07.450Z,29.54
2018-07-21T15:16:07.334Z,29.40
2018-07-21T15:18:00.195Z,29.54
2018-07-21T15:19:00.094Z,29.44
2018-07-21T15:20:52.933Z,29.54
2018-07-21T15:21:52.832Z,29.55
2018-07-21T15:23:45.679Z,29.43
2018-07-21T15:24:45.585Z,29.39
2018-07-21T15:26:38.413Z,29.13
2018-07-21T15:27:38.375Z,29.00
2018-07-21T15:29:31.242Z,29.03
2018-07-21T15:30:31.085Z,29.09
2018-07-21T15:32:23.914Z,29.07
2018-07-21T15:33:23.857Z,29.22
2018-07-21T15:35:16.732Z,29.17
2018-07-21T15:36:16.628Z,29.04
2018-07-21T15:38:12.619Z,29.07
2018-07-21T15:39:12.354Z,29.12
2018-07-21T15:41:06.186Z,29.09
2018-07-21T15:42:06.112Z,29.07
2018-07-21T15:43:58.925Z,29.12
2018-07-21T15:44:58.828Z,29.13
2018-07-21T15:46:51.660Z,29.06
2018-07-21T15:47:51.604Z,29.03
2018-07-21T15:49:44.441Z,29.18
2018-07-21T15:50:44.343Z,29.00
2018-07-21T15:52:37.188Z,29.02
2018-07-21T15:53:37.086Z,28.89
2018-07-21T15:55:29.947Z,28.87
2018-07-21T15:56:29.825Z,29.00
2018-07-21T15:58:22.656Z,28.84
2018-07-21T15:59:22.577Z,28.91
2018-07-21T16:01:15.421Z,28.71
2018-07-21T16:02:15.357Z,28.72
2018-07-21T16:04:08.190Z,28.59
2018-07-21T16:05:08.069Z,28.50
2018-07-21T16:07:00.911Z,28.49
2018-07-21T16:08:00.826Z,28.47
2018-07-21T16:09:53.673Z,28.47
2018-07-21T16:10:53.576Z,28.35
2018-07-21T16:12:46.401Z,28.22
2018-07-21T16:13:46.342Z,28.22
2018-07-21T16:15:39.179Z,28.13
2018-07-21T16:16:39.088Z,28.17
2018-07-21T16:18:31.924Z,28.10
2018-07-21T16:19:31.818Z,28.13
2018-07-21T16:21:24.676Z,28.22
2018-07-21T16:22:24.611Z,28.06
2018-07-21T16:24:17.462Z,28.16
2018-07-21T16:25:17.317Z,28.27
2018-07-21T16:27:10.183Z,28.22
2018-07-21T16:28:10.076Z,28.17
2018-07-21T16:30:02.928Z,28.17
2018-07-21T16:31:02.824Z,28.20
2018-07-21T16:32:55.645Z,28.22
2018-07-21T16:33:55.578Z,28.16
2018-07-21T16:35:49.453Z,28.22
2018-07-21T16:36:48.374Z,28.44
2018-07-21T16:38:41.296Z,28.66
2018-07-21T16:39:41.171Z,28.81
2018-07-21T16:41:34.225Z,29.15
2018-07-21T16:42:34.132Z,29.25
2018-07-21T16:44:26.987Z,29.43
2018-07-21T16:45:26.897Z,29.39
2018-07-21T16:47:19.731Z,29.22
2018-07-21T16:48:19.634Z,29.07
2018-07-21T16:50:12.470Z,28.96
2018-07-21T16:51:12.375Z,28.81
2018-07-21T16:53:05.222Z,28.53
2018-07-21T16:54:05.148Z,28.56
2018-07-21T16:55:57.967Z,28.56
2018-07-21T16:56:57.888Z,28.46
2018-07-21T16:58:50.730Z,28.49
2018-07-21T16:59:50.636Z,28.53
2018-07-21T17:01:43.473Z,28.59
2018-07-21T17:02:43.372Z,28.49
2018-07-21T17:04:36.744Z,28.50
2018-07-21T17:05:36.637Z,28.49
2018-07-21T17:07:29.993Z,28.50
2018-07-21T17:08:29.903Z,28.54
2018-07-21T17:10:22.747Z,28.40
2018-07-21T17:11:22.644Z,28.40
2018-07-21T17:13:15.495Z,28.49
2018-07-21T17:14:15.391Z,28.71
2018-07-21T17:16:08.256Z,29.13
2018-07-21T17:17:08.171Z,29.31
2018-07-21T17:19:00.997Z,29.96
2018-07-21T17:20:00.891Z,30.17
2018-07-21T17:21:53.725Z,30.85
2018-07-21T17:22:53.637Z,31.24
2018-07-21T17:24:46.487Z,31.82
2018-07-21T17:25:46.390Z,32.08
2018-07-21T17:27:39.368Z,32.21
2018-07-21T17:28:39.165Z,32.01
2018-07-21T17:30:32.014Z,31.78
2018-07-21T17:31:31.895Z,31.76
2018-07-21T17:33:25.253Z,31.29
2018-07-21T17:34:25.156Z,31.04
2018-07-21T17:36:18.026Z,30.71
2018-07-21T17:37:17.953Z,30.43
2018-07-21T17:39:10.791Z,30.14
2018-07-21T17:40:10.706Z,30.00
2018-07-21T17:42:03.520Z,30.17
2018-07-21T17:43:03.427Z,29.99
2018-07-21T17:44:56.259Z,29.89
2018-07-21T17:45:56.183Z,29.95
2018-07-21T17:47:48.981Z,29.89
2018-07-21T17:48:48.902Z,30.05
2018-07-21T17:50:41.748Z,30.03
2018-07-21T17:51:41.672Z,30.08
2018-07-21T17:53:34.500Z,30.21
2018-07-21T17:54:34.396Z,30.36
2018-07-21T17:56:27.283Z,30.49
2018-07-21T17:57:27.153Z,30.65
2018-07-21T17:59:19.996Z,30.86
2018-07-21T18:00:19.895Z,31.05
2018-07-21T18:02:12.728Z,31.29
2018-07-21T18:03:12.661Z,31.49
2018-07-21T18:05:05.500Z,31.61
2018-07-21T18:06:05.395Z,31.71
2018-07-21T18:07:58.244Z,31.42
2018-07-21T18:08:58.168Z,30.96
2018-07-21T18:10:50.995Z,30.46
2018-07-21T18:11:50.903Z,30.20
2018-07-21T18:13:43.730Z,30.02
2018-07-21T18:14:43.646Z,29.84
2018-07-21T18:16:36.518Z,29.54
2018-07-21T18:17:36.408Z,29.49
2018-07-21T18:19:29.270Z,29.21
2018-07-21T18:20:29.198Z,29.29
2018-07-21T18:22:22.107Z,29.13
2018-07-21T18:23:22.055Z,29.03
2018-07-21T18:25:14.978Z,28.98
2018-07-21T18:26:14.779Z,28.83
2018-07-21T18:28:07.612Z,28.62
2018-07-21T18:29:07.496Z,28.66
2018-07-21T18:31:00.345Z,28.72
2018-07-21T18:32:00.248Z,28.61
2018-07-21T18:33:53.078Z,28.57
2018-07-21T18:34:53.011Z,28.64